Time;durP1;ratioP1;P1;durP2;ratioP2;P2;SDS_P1;SDS_P2;PMS_P1;PMS_P2;Temp;Humidity;BMP_temperature;BMP_pressure;BME280_temperature;BME280_humidity;BME280_pressure;Samples;Min_cycle;Max_cycle;Signal;HPM_P1;HPM_P2
2022/12/08 00:22:32;;;;;;;0.63;0.10;;;2.80;99.90;;;;;;6403524;22;20022;-88
2022/12/08 00:24:58;;;;;;;1.55;0.20;;;2.70;99.90;;;;;;6376551;22;20018;-89
2022/12/08 00:27:24;;;;;;;0.43;0.10;;;2.70;99.90;;;;;;6376794;22;20025;-91
2022/12/08 00:29:49;;;;;;;0.90;0.13;;;2.70;99.90;;;;;;6376707;22;20016;-90
2022/12/08 00:36:20;;;;;;;2.22;0.10;;;2.70;99.90;;;;;;6405148;22;20078;-94
2022/12/08 00:38:47;;;;;;;0.22;0.10;;;2.80;99.90;;;;;;6376531;22;20018;-91
2022/12/08 00:41:21;;;;;;;0.60;0.28;;;2.80;99.90;;;;;;6376665;22;20058;-90
2022/12/08 00:44:01;;;;;;;0.20;0.10;;;2.80;99.90;;;;;;6401618;22;20045;-90
2022/12/08 00:46:29;;;;;;;1.48;0.30;;;2.80;99.90;;;;;;6376805;22;20067;-90
2022/12/08 00:48:54;;;;;;;0.38;0.13;;;2.90;99.90;;;;;;6376777;22;20384;-89
2022/12/08 00:51:45;;;;;;;1.90;0.10;;;2.90;99.90;;;;;;6377287;22;20028;-90
2022/12/08 00:54:26;;;;;;;0.88;0.25;;;2.90;99.90;;;;;;6376552;22;20010;-92
2022/12/08 00:56:52;;;;;;;1.58;0.00;;;3.00;99.90;;;;;;6376291;22;20022;-89
2022/12/08 00:59:18;;;;;;;1.40;0.10;;;3.00;99.90;;;;;;6376542;22;20020;-92
2022/12/08 01:05:55;;;;;;;0.40;0.10;;;3.00;99.90;;;;;;6404852;22;20031;-93
2022/12/08 01:08:33;;;;;;;0.38;0.10;;;3.00;99.90;;;;;;6376697;22;20071;-92
2022/12/08 01:11:02;;;;;;;;;;;3.00;99.90;;;;;;6377112;22;20072;-92
2022/12/08 01:13:28;;;;;;;0.77;0.10;;;3.00;99.90;;;;;;6376002;22;19914;-90
2022/12/08 01:15:54;;;;;;;0.32;0.00;;;3.00;99.90;;;;;;6376242;22;20063;-91
2022/12/08 01:18:19;;;;;;;0.40;0.10;;;3.00;99.90;;;;;;6376496;22;20018;-91
2022/12/08 01:23:34;;;;;;;0.98;0.13;;;3.00;99.90;;;;;;6416013;22;20457;-89
2022/12/08 01:26:05;;;;;;;1.05;0.20;;;3.00;99.90;;;;;;6383780;22;20078;-95
2022/12/08 01:28:32;;;;;;;1.92;0.17;;;3.00;99.90;;;;;;6383700;22;20414;-92
2022/12/08 01:31:00;;;;;;;0.10;0.00;;;3.00;99.90;;;;;;6385912;22;20049;-90
2022/12/08 01:33:26;;;;;;;2.28;0.10;;;3.00;99.90;;;;;;6385111;22;20025;-93
2022/12/08 01:35:52;;;;;;;0.25;0.08;;;3.00;99.90;;;;;;6384770;22;20014;-91
2022/12/08 01:38:18;;;;;;;1.05;0.10;;;3.00;99.90;;;;;;6387368;22;20024;-94
2022/12/08 01:40:44;;;;;;;0.97;0.23;;;3.00;99.90;;;;;;6388224;22;20057;-90
2022/12/08 01:43:16;;;;;;;1.38;0.10;;;3.10;99.90;;;;;;6383494;22;20014;-91
2022/12/08 01:45:42;;;;;;;0.63;0.00;;;3.10;99.90;;;;;;6383101;22;20024;-94
2022/12/08 01:48:21;;;;;;;0.30;0.10;;;3.10;99.90;;;;;;6387735;22;20014;-92
2022/12/08 01:50:52;;;;;;;2.67;0.65;;;3.10;99.90;;;;;;6386760;22;20018;-96
2022/12/08 01:53:31;;;;;;;0.10;0.00;;;3.10;99.90;;;;;;6379390;22;20014;-95
2022/12/08 01:56:07;;;;;;;0.57;0.10;;;3.10;99.90;;;;;;6384818;22;20066;-94
2022/12/08 01:58:40;;;;;;;2.50;0.10;;;3.10;99.90;;;;;;6384773;22;20078;-93
2022/12/08 02:01:06;;;;;;;2.05;0.20;;;3.00;99.90;;;;;;6387971;22;20062;-91
2022/12/08 02:03:54;;;;;;;0.27;0.00;;;3.00;99.90;;;;;;6388307;22;20093;-93
2022/12/08 02:06:20;;;;;;;;;;;3.10;99.90;;;;;;6385567;22;20010;-91
2022/12/08 02:08:48;;;;;;;1.23;0.10;;;3.00;99.90;;;;;;6412952;22;19941;-87
2022/12/08 02:11:15;;;;;;;0.30;0.10;;;3.00;99.90;;;;;;6387907;22;20442;-87
2022/12/08 02:13:43;;;;;;;2.97;0.28;;;3.00;99.90;;;;;;6389959;22;20045;-88
2022/12/08 02:16:21;;;;;;;0.25;0.10;;;3.00;99.90;;;;;;6386913;22;20016;-87
2022/12/08 02:19:11;;;;;;;0.00;0.00;;;3.00;99.90;;;;;;6387368;22;20002;-87
2022/12/08 02:21:49;;;;;;;0.00;0.00;;;3.00;99.90;;;;;;6406311;22;20021;-89
2022/12/08 02:24:31;;;;;;;0.70;0.20;;;3.00;99.90;;;;;;6401248;22;20024;-92
2022/12/08 02:27:34;;;;;;;0.00;0.00;;;2.90;99.90;;;;;;6375007;22;20017;-96
2022/12/08 02:30:13;;;;;;;0.40;0.00;;;2.90;99.90;;;;;;6377862;22;20097;-91
2022/12/08 02:33:15;;;;;;;0.15;0.00;;;2.90;99.90;;;;;;6380429;22;20092;-92
2022/12/08 02:35:59;;;;;;;0.43;0.20;;;2.90;99.90;;;;;;6377587;22;20013;-91
2022/12/08 02:41:26;;;;;;;1.45;0.00;;;2.90;99.90;;;;;;6380561;22;20022;-91
2022/12/08 02:44:29;;;;;;;0.15;0.00;;;2.90;99.90;;;;;;6327047;22;20385;-89
2022/12/08 02:47:19;;;;;;;0.00;0.00;;;2.90;99.90;;;;;;6330618;22;20014;-91
2022/12/08 02:49:45;;;;;;;0.00;0.00;;;2.90;99.90;;;;;;6322756;22;20105;-96
2022/12/08 02:57:38;;;;;;;0.10;0.00;;;2.80;99.90;;;;;;6321508;22;20018;-92
2022/12/08 03:00:19;;;;;;;0.47;0.10;;;2.70;99.90;;;;;;6322850;22;20029;-92
2022/12/08 03:03:13;;;;;;;0.00;0.00;;;2.70;99.90;;;;;;6298436;22;20025;-90
2022/12/08 03:08:18;;;;;;;0.38;0.10;;;2.70;99.90;;;;;;6350279;22;20018;-89
2022/12/08 03:13:24;;;;;;;0.00;0.00;;;2.70;99.90;;;;;;6354053;22;20033;-92
2022/12/08 03:15:53;;;;;;;0.10;0.00;;;2.70;99.90;;;;;;6300383;22;20023;-92
2022/12/08 03:18:30;;;;;;;0.25;0.00;;;2.70;99.90;;;;;;6299697;22;20066;-92
2022/12/08 03:23:32;;;;;;;0.10;0.03;;;2.70;99.90;;;;;;6350723;22;20023;-96
2022/12/08 03:26:27;;;;;;;0.00;0.00;;;2.70;99.90;;;;;;6292323;22;20030;-92
2022/12/08 03:28:53;;;;;;;0.38;0.00;;;2.70;99.90;;;;;;6288364;22;20011;-90
2022/12/08 03:31:20;;;;;;;1.87;0.03;;;2.80;99.90;;;;;;6286641;22;20021;-94
2022/12/08 03:33:50;;;;;;;0.30;0.10;;;2.80;99.90;;;;;;6289412;22;20025;-92
2022/12/08 03:36:17;;;;;;;0.55;0.10;;;2.70;99.90;;;;;;6288751;22;20084;-96
2022/12/08 03:38:44;;;;;;;0.00;0.00;;;2.70;99.90;;;;;;6264018;22;20021;-90
2022/12/08 03:41:17;;;;;;;1.17;0.03;;;2.70;99.90;;;;;;6287786;22;20011;-92
2022/12/08 03:43:53;;;;;;;0.17;0.00;;;2.60;99.90;;;;;;6264216;22;20531;-95
2022/12/08 03:46:24;;;;;;;0.10;0.00;;;2.60;99.90;;;;;;6293207;22;20015;-95
2022/12/08 03:48:51;;;;;;;0.00;0.00;;;2.50;99.90;;;;;;6292518;22;20038;-89
2022/12/08 03:51:17;;;;;;;0.10;0.00;;;2.50;99.90;;;;;;6292221;22;20018;-89
2022/12/08 03:53:44;;;;;;;0.00;0.00;;;2.50;99.90;;;;;;6291810;22;20019;-94
2022/12/08 03:56:23;;;;;;;0.00;0.00;;;2.50;99.90;;;;;;6291774;22;20011;-96
2022/12/08 03:58:49;;;;;;;0.15;0.10;;;2.50;99.90;;;;;;6319954;22;20053;-88
2022/12/08 04:01:15;;;;;;;1.02;0.00;;;2.50;99.90;;;;;;6295898;22;20007;-95
2022/12/08 04:03:41;;;;;;;0.00;0.00;;;2.60;99.90;;;;;;6299691;22;20025;-90
2022/12/08 04:08:42;;;;;;;0.45;0.10;;;2.60;99.90;;;;;;6339344;22;20007;-90
2022/12/08 04:11:08;;;;;;;0.35;0.00;;;2.60;99.90;;;;;;6273729;22;20349;-88
2022/12/08 04:13:36;;;;;;;0.20;0.00;;;2.60;99.90;;;;;;6299180;22;20019;-89
2022/12/08 04:16:02;;;;;;;0.30;0.10;;;2.70;99.90;;;;;;6297373;22;20046;-92
2022/12/08 04:18:28;;;;;;;0.65;0.15;;;2.70;99.90;;;;;;6301139;22;20017;-90
2022/12/08 04:20:54;;;;;;;0.10;0.10;;;2.70;99.90;;;;;;6298155;22;20042;-88
2022/12/08 04:23:19;;;;;;;4.60;0.28;;;2.70;99.90;;;;;;6271254;22;20015;-89
2022/12/08 04:25:45;;;;;;;0.90;0.20;;;2.70;99.90;;;;;;6269855;22;20039;-90
2022/12/08 04:28:12;;;;;;;0.70;0.20;;;2.70;99.90;;;;;;6291818;22;20030;-89
2022/12/08 04:30:37;;;;;;;0.68;0.10;;;2.80;99.90;;;;;;6321919;22;20022;-92
2022/12/08 04:33:03;;;;;;;0.97;0.20;;;2.70;99.90;;;;;;6246252;22;20018;-90
2022/12/08 04:35:31;;;;;;;0.20;0.10;;;2.80;99.90;;;;;;6300458;22;20102;-93
2022/12/08 04:37:57;;;;;;;0.32;0.10;;;2.80;99.90;;;;;;6295876;22;20038;-96
2022/12/08 04:40:23;;;;;;;0.65;0.15;;;2.70;99.90;;;;;;6292820;22;20440;-93
2022/12/08 04:42:49;;;;;;;0.53;0.10;;;2.80;99.90;;;;;;6287174;22;20015;-96
2022/12/08 04:45:16;;;;;;;0.33;0.00;;;2.80;99.90;;;;;;6286457;22;20098;-96
2022/12/08 04:47:42;;;;;;;0.43;0.20;;;2.80;99.90;;;;;;6260856;22;20068;-96
2022/12/08 04:50:09;;;;;;;0.00;0.00;;;2.70;99.90;;;;;;6290062;22;20015;-96
2022/12/08 04:52:35;;;;;;;0.75;0.20;;;2.80;99.90;;;;;;6292638;22;20044;-94
2022/12/08 05:00:02;;;;;;;0.70;0.10;;;2.80;99.90;;;;;;6387348;22;20002;-90
2022/12/08 05:02:28;;;;;;;;;;;2.80;99.90;;;;;;6307403;22;20018;-88
2022/12/08 05:05:15;;;;;;;0.00;0.00;;;2.80;99.90;;;;;;6333187;22;19932;-89
2022/12/08 05:07:40;;;;;;;0.38;0.03;;;2.80;99.90;;;;;;6333128;22;20014;-88
2022/12/08 05:10:13;;;;;;;0.20;0.10;;;2.80;99.90;;;;;;6335850;22;20117;-89
2022/12/08 05:12:39;;;;;;;0.57;0.00;;;2.80;99.90;;;;;;6333845;22;20025;-90
2022/12/08 05:15:06;;;;;;;0.47;0.03;;;2.80;99.90;;;;;;6309159;22;20037;-90
2022/12/08 05:22:43;;;;;;;0.28;0.10;;;2.90;99.90;;;;;;6382798;22;20030;-90
2022/12/08 05:25:09;;;;;;;0.30;0.08;;;2.80;99.90;;;;;;6308627;22;20076;-91
2022/12/08 05:27:35;;;;;;;1.15;0.10;;;2.80;99.90;;;;;;6307304;22;20003;-91
2022/12/08 05:30:01;;;;;;;2.03;0.00;;;2.90;99.90;;;;;;6305543;22;20018;-89
2022/12/08 05:32:27;;;;;;;0.00;0.00;;;2.80;99.90;;;;;;6360201;22;20021;-90
2022/12/08 05:34:52;;;;;;;0.90;0.10;;;2.80;99.90;;;;;;6331338;22;20018;-90
2022/12/08 05:37:18;;;;;;;0.00;0.00;;;2.80;99.90;;;;;;6306943;22;20016;-90
2022/12/08 05:39:44;;;;;;;0.35;0.00;;;2.80;99.90;;;;;;6328228;22;20461;-93
2022/12/08 05:42:10;;;;;;;0.33;0.10;;;2.80;99.90;;;;;;6324191;22;20014;-91
2022/12/08 05:44:36;;;;;;;0.03;0.00;;;2.80;99.90;;;;;;6353517;22;20014;-91
2022/12/08 05:47:01;;;;;;;0.20;0.10;;;2.80;99.90;;;;;;6328433;22;20025;-92
2022/12/08 05:52:06;;;;;;;0.00;0.00;;;2.80;99.90;;;;;;6384019;22;20025;-90
2022/12/08 05:54:31;;;;;;;0.47;0.10;;;2.70;99.90;;;;;;6365371;22;20077;-89
2022/12/08 05:56:57;;;;;;;0.15;0.00;;;2.80;99.90;;;;;;6390512;22;20014;-88
2022/12/08 05:59:23;;;;;;;0.57;0.05;;;2.70;99.90;;;;;;6364446;22;20042;-88
2022/12/08 06:01:49;;;;;;;0.23;0.10;;;2.70;99.90;;;;;;6337250;22;20014;-90
2022/12/08 06:04:30;;;;;;;0.40;0.10;;;2.70;99.90;;;;;;6390475;22;20022;-92
2022/12/08 06:06:55;;;;;;;1.55;0.10;;;2.70;99.90;;;;;;6388793;22;20020;-90
2022/12/08 06:09:21;;;;;;;0.10;0.03;;;2.60;99.90;;;;;;6384120;22;20100;-95
2022/12/08 06:11:47;;;;;;;0.40;0.10;;;2.60;99.90;;;;;;6362662;22;20014;-91
2022/12/08 06:14:12;;;;;;;0.63;0.00;;;2.60;99.90;;;;;;6385322;22;20025;-91
2022/12/08 06:16:38;;;;;;;0.57;0.00;;;2.60;99.90;;;;;;6359815;22;19997;-93
2022/12/08 07:27:23;;;;;;;0.20;0.20;;;2.10;99.90;;;;;;6406001;22;20018;-93
2022/12/08 07:35:58;;;;;;;0.50;0.20;;;2.00;99.90;;;;;;6370913;22;20022;-91
2022/12/08 07:38:25;;;;;;;0.50;0.20;;;2.00;99.90;;;;;;6291861;22;20252;-93
2022/12/08 07:40:51;;;;;;;1.13;0.20;;;2.00;99.90;;;;;;6317464;22;20010;-93
2022/12/08 07:43:17;;;;;;;0.50;0.20;;;2.00;99.90;;;;;;6317301;22;20022;-95
2022/12/08 07:45:43;;;;;;;0.87;0.20;;;2.00;99.90;;;;;;6317501;22;20089;-91
2022/12/08 14:31:49;;;;;;;0.20;0.10;;;3.20;99.90;;;;;;6401327;22;20020;-89
2022/12/08 14:34:46;;;;;;;0.65;0.10;;;3.10;99.90;;;;;;6356721;22;20032;-91
2022/12/08 14:39:48;;;;;;;0.30;0.10;;;3.00;99.90;;;;;;6321067;22;20023;-94
2022/12/08 14:42:52;;;;;;;0.22;0.10;;;3.00;99.90;;;;;;6292654;22;20011;-93
2022/12/08 14:55:40;;;;;;;18.35;7.97;;;2.80;99.90;;;;;;6371522;22;20513;-91
2022/12/08 14:58:26;;;;;;;9.32;3.65;;;2.70;99.90;;;;;;6329017;22;20056;-92
2022/12/08 15:03:32;;;;;;;1.27;0.68;;;2.70;99.90;;;;;;6344119;22;20347;-90
2022/12/08 15:11:36;;;;;;;0.60;0.30;;;2.50;99.90;;;;;;6386009;22;20022;-91
2022/12/08 15:14:02;;;;;;;0.25;0.20;;;2.50;99.90;;;;;;6391320;22;20014;-90
2022/12/08 15:16:38;;;;;;;0.70;0.30;;;2.50;99.90;;;;;;6360118;22;20021;-93
2022/12/08 15:19:26;;;;;;;1.33;0.30;;;2.50;99.90;;;;;;6381889;22;20538;-90
2022/12/08 15:21:56;;;;;;;2.15;0.30;;;2.40;99.90;;;;;;6378633;22;20769;-91
2022/12/08 15:24:25;;;;;;;1.23;0.40;;;2.40;99.90;;;;;;6352527;22;20466;-91
2022/12/08 15:26:54;;;;;;;1.48;0.47;;;2.40;99.90;;;;;;6380273;22;20014;-93
2022/12/08 15:29:23;;;;;;;2.05;0.30;;;2.40;99.90;;;;;;6389020;22;20142;-91
2022/12/08 15:31:53;;;;;;;0.95;0.20;;;2.30;99.90;;;;;;6380471;22;20018;-96
2022/12/08 15:34:22;;;;;;;0.30;0.20;;;2.30;99.90;;;;;;6375122;22;20343;-90
2022/12/08 15:36:49;;;;;;;1.15;0.40;;;2.30;99.90;;;;;;6349666;22;20089;-96
2022/12/08 15:39:31;;;;;;;0.75;0.30;;;2.30;99.90;;;;;;6349515;22;20439;-96
2022/12/08 15:41:58;;;;;;;2.85;0.98;;;2.30;99.90;;;;;;6375213;22;20019;-91
2022/12/08 15:44:24;;;;;;;2.38;0.75;;;2.30;99.90;;;;;;6348709;22;20013;-93
2022/12/08 15:46:53;;;;;;;2.60;1.10;;;2.30;99.90;;;;;;6374987;22;20017;-96
2022/12/08 15:49:21;;;;;;;2.05;0.70;;;2.30;99.90;;;;;;6350180;22;20443;-96
2022/12/08 15:51:48;;;;;;;4.85;3.38;;;2.30;99.90;;;;;;6375422;22;20071;-95
2022/12/08 15:54:14;;;;;;;0.80;0.32;;;2.30;99.90;;;;;;6349357;22;20022;-95
2022/12/08 15:56:46;;;;;;;0.57;0.30;;;2.30;99.90;;;;;;6349081;22;20045;-91
2022/12/08 15:59:23;;;;;;;0.70;0.40;;;2.20;99.90;;;;;;6375134;22;20014;-96
2022/12/08 16:01:50;;;;;;;1.42;0.50;;;2.20;99.90;;;;;;6375899;22;20018;-96
2022/12/08 16:04:21;;;;;;;0.80;0.38;;;2.10;99.90;;;;;;6377723;22;20017;-96
2022/12/08 16:06:52;;;;;;;2.60;0.40;;;2.10;99.90;;;;;;6379013;22;20017;-93
2022/12/08 16:09:29;;;;;;;1.13;0.40;;;2.10;99.90;;;;;;6376505;22;20014;-95
2022/12/08 16:14:42;;;;;;;1.23;0.70;;;2.00;99.90;;;;;;6379460;22;20025;-96
2022/12/08 16:17:16;;;;;;;0.82;0.30;;;2.00;99.90;;;;;;6375888;22;20018;-93
2022/12/08 16:19:43;;;;;;;1.50;0.50;;;1.90;99.90;;;;;;6376612;22;20014;-92
2022/12/08 16:22:19;;;;;;;;;;;1.80;99.90;;;;;;6377422;22;20343;-91
2022/12/08 16:24:45;;;;;;;3.50;0.70;;;1.80;99.90;;;;;;6375211;22;19945;-94
2022/12/08 16:27:26;;;;;;;0.88;0.40;;;1.70;99.90;;;;;;6348185;22;20079;-95
2022/12/08 16:29:53;;;;;;;1.38;0.50;;;1.60;99.90;;;;;;6374306;22;20014;-93
2022/12/08 16:32:19;;;;;;;1.88;0.82;;;1.60;99.90;;;;;;6374647;22;20014;-95
2022/12/08 16:34:45;;;;;;;0.97;0.40;;;1.50;99.90;;;;;;6374486;22;20393;-95
2022/12/08 16:37:17;;;;;;;0.83;0.50;;;1.50;99.90;;;;;;6374460;22;20061;-96
2022/12/08 16:39:44;;;;;;;1.20;0.45;;;1.40;99.90;;;;;;6375107;22;20049;-90
2022/12/08 16:45:19;;;;;;;1.58;0.70;;;1.40;99.90;;;;;;6402504;22;20028;-91
2022/12/08 16:47:51;;;;;;;1.95;0.65;;;1.30;99.90;;;;;;6375495;22;20045;-92
2022/12/08 16:50:23;;;;;;;1.85;0.60;;;1.30;99.90;;;;;;6376407;22;20438;-91
2022/12/08 16:52:55;;;;;;;2.67;0.70;;;1.30;99.90;;;;;;6376668;22;20502;-94
2022/12/08 16:55:20;;;;;;;3.80;0.70;;;1.30;99.90;;;;;;6376869;22;20021;-92
2022/12/08 16:57:46;;;;;;;3.33;1.10;;;1.30;99.90;;;;;;6324728;22;20018;-93
2022/12/08 17:00:16;;;;;;;1.70;0.63;;;1.30;99.90;;;;;;6350474;22;20387;-89
2022/12/08 17:02:42;;;;;;;1.58;0.60;;;1.20;99.90;;;;;;6376270;22;20017;-89
2022/12/08 17:05:09;;;;;;;1.67;0.52;;;1.30;99.90;;;;;;6376159;22;20088;-89
2022/12/08 17:07:35;;;;;;;1.92;0.60;;;1.20;99.90;;;;;;6376061;22;20024;-90
2022/12/08 17:10:05;;;;;;;1.35;0.50;;;1.20;99.90;;;;;;6375926;22;20006;-88
2022/12/08 17:12:30;;;;;;;1.35;0.40;;;1.20;99.90;;;;;;6375340;22;20018;-88
2022/12/08 17:14:56;;;;;;;1.52;0.50;;;1.20;99.90;;;;;;6323581;22;20014;-87
2022/12/08 17:17:22;;;;;;;1.53;0.70;;;1.20;99.90;;;;;;6349591;22;20049;-89
2022/12/08 17:19:47;;;;;;;1.77;0.67;;;1.10;99.90;;;;;;6375930;22;20014;-88
2022/12/08 17:22:13;;;;;;;1.58;0.65;;;1.10;99.90;;;;;;6402160;22;20014;-88
2022/12/08 17:24:39;;;;;;;3.80;2.05;;;1.10;99.90;;;;;;6349201;22;20716;-88
2022/12/08 17:27:08;;;;;;;2.92;1.02;;;1.00;99.90;;;;;;6402447;22;20323;-88
2022/12/08 17:29:35;;;;;;;2.72;1.23;;;1.10;99.90;;;;;;6349418;22;20039;-87
2022/12/08 17:32:13;;;;;;;;;;;1.10;99.90;;;;;;6378476;22;20014;-87
2022/12/08 17:34:39;;;;;;;;;;;1.10;99.90;;;;;;6375877;22;19959;-89
2022/12/08 17:37:04;;;;;;;;;;;1.10;99.90;;;;;;6376185;22;19914;-92
2022/12/08 17:39:30;;;;;;;;;;;1.10;99.90;;;;;;6376231;22;19910;-87
2022/12/08 17:41:56;;;;;;;;;;;1.10;99.90;;;;;;6375742;22;19924;-86
2022/12/08 17:44:22;;;;;;;;;;;1.10;99.90;;;;;;6402597;22;19909;-88
2022/12/08 17:53:22;;;;;;;;;;;1.10;99.90;;;;;;6402611;22;19913;-92
2022/12/08 17:55:53;;;;;;;;;;;1.10;99.90;;;;;;6375719;22;19914;-88
2022/12/08 17:58:18;;;;;;;;;;;1.10;99.90;;;;;;6375925;22;20321;-91
2022/12/08 18:01:06;;;;;;;;;;;1.10;99.90;;;;;;6376941;22;19914;-94
2022/12/08 18:03:32;;;;;;;;;;;1.10;99.90;;;;;;6376061;22;19967;-88
2022/12/08 18:06:02;;;;;;;;;;;1.10;99.90;;;;;;6404666;22;19921;-96
2022/12/08 18:08:28;;;;;;;;;;;1.10;99.90;;;;;;6390278;22;20403;-88
2022/12/08 18:10:53;;;;;;;;;;;1.10;99.90;;;;;;6386496;22;19914;-89
2022/12/08 18:13:19;;;;;;;;;;;1.00;99.90;;;;;;6386698;22;19914;-88
2022/12/08 18:15:45;;;;;;;;;;;1.10;99.90;;;;;;6362538;22;19914;-88
2022/12/08 18:18:10;;;;;;;;;;;1.00;99.90;;;;;;6317960;22;20319;-89
2022/12/08 18:20:36;;;;;;;;;;;0.90;99.90;;;;;;6344157;22;19914;-88
2022/12/08 18:23:02;;;;;;;;;;;0.90;99.90;;;;;;6294967;22;19914;-89
2022/12/08 18:25:27;;;;;;;;;;;0.80;99.90;;;;;;6319972;22;19914;-88
2022/12/08 18:27:53;;;;;;;;;;;0.70;99.90;;;;;;6319387;22;19921;-89
2022/12/08 18:30:43;;;;;;;;;;;0.60;99.90;;;;;;6292876;22;19914;-89
2022/12/08 18:33:08;;;;;;;;;;;0.60;99.90;;;;;;6317932;22;19921;-90
2022/12/08 18:46:47;;;;;;;;;;;0.40;99.90;;;;;;6340313;22;19915;-91
2022/12/08 18:49:14;;;;;;;;;;;0.40;99.90;;;;;;6312515;22;19959;-91
2022/12/08 18:51:40;;;;;;;;;;;0.40;99.90;;;;;;6287057;22;19914;-92
2022/12/08 18:54:06;;;;;;;;;;;0.40;99.90;;;;;;6266890;22;19929;-91
2022/12/08 18:56:32;;;;;;;;;;;0.50;99.90;;;;;;6294621;22;19950;-89
2022/12/08 18:58:59;;;;;;;;;;;0.50;99.90;;;;;;6293168;22;19925;-89
2022/12/08 19:01:25;;;;;;;;;;;0.50;99.90;;;;;;6286893;22;20392;-95
2022/12/08 19:03:51;;;;;;;;;;;0.50;99.90;;;;;;6286894;22;19997;-90
2022/12/08 19:06:16;;;;;;;;;;;0.50;99.90;;;;;;6286838;22;19954;-93
2022/12/08 19:11:18;;;;;;;;;;;0.40;99.90;;;;;;6339618;22;19914;-90
2022/12/08 19:13:45;;;;;;;;;;;0.40;99.90;;;;;;6287158;22;19915;-93
2022/12/08 19:16:11;;;;;;;;;;;0.40;99.90;;;;;;6261017;22;19921;-91
2022/12/08 19:18:37;;;;;;;;;;;0.30;99.90;;;;;;6286573;22;20231;-90
2022/12/08 19:21:03;;;;;;;;;;;0.30;99.90;;;;;;6286493;22;19957;-92
2022/12/08 19:23:29;;;;;;;;;;;0.30;99.90;;;;;;6312313;22;19914;-90
2022/12/08 19:25:55;;;;;;;;;;;0.20;99.90;;;;;;6286533;22;19914;-91
2022/12/08 19:28:20;;;;;;;;;;;0.20;99.90;;;;;;6286392;22;20239;-89
2022/12/08 19:30:46;;;;;;;;;;;0.10;99.90;;;;;;6286575;22;19919;-92
2022/12/08 19:33:12;;;;;;;;;;;0.20;99.90;;;;;;6261998;22;19936;-89
2022/12/08 19:35:37;;;;;;;;;;;0.10;99.90;;;;;;6260741;22;19997;-94
2022/12/08 19:38:03;;;;;;;;;;;0.20;99.90;;;;;;6285819;22;19911;-92
2022/12/08 19:45:59;;;;;;;;;;;0.20;99.90;;;;;;6311092;22;19989;-95
2022/12/08 19:48:47;;;;;;;;;;;0.20;99.90;;;;;;6311735;22;19918;-89
2022/12/08 19:51:12;;;;;;;;;;;0.20;99.90;;;;;;6311541;22;19969;-88
2022/12/08 19:53:38;;;;;;;;;;;0.10;99.90;;;;;;6259942;22;20320;-90
2022/12/08 19:56:04;;;;;;;;;;;0.10;99.90;;;;;;6261545;22;19922;-94
2022/12/08 19:58:29;;;;;;;;;;;0.10;99.90;;;;;;6286977;22;19915;-94
2022/12/08 20:00:55;;;;;;;;;;;0.00;99.90;;;;;;6286432;22;19926;-91
2022/12/08 20:03:36;;;;;;;;;;;0.00;99.90;;;;;;6286492;22;19914;-90
2022/12/08 20:06:38;;;;;;;;;;;0.00;99.90;;;;;;6287010;22;19914;-89
2022/12/08 20:09:13;;;;;;;;;;;0.00;99.90;;;;;;6286168;22;20338;-86
2022/12/08 20:11:39;;;;;;;;;;;0.00;99.90;;;;;;6285576;22;19920;-87
2022/12/08 20:14:05;;;;;;;;;;;0.00;99.90;;;;;;6282583;22;19993;-87
2022/12/08 20:16:31;;;;;;;;;;;0.00;99.90;;;;;;6283600;22;19918;-89
2022/12/08 20:19:15;;;;;;;;;;;-0.10;99.90;;;;;;6284694;22;19960;-88
2022/12/08 20:21:40;;;;;;;;;;;-0.10;99.90;;;;;;6286065;22;20355;-92
2022/12/08 20:24:28;;;;;;;;;;;-0.20;99.90;;;;;;6286344;22;19918;-92
2022/12/08 20:26:53;;;;;;;;;;;-0.20;99.90;;;;;;6312706;22;19914;-91
2022/12/08 20:29:19;;;;;;;;;;;-0.20;99.90;;;;;;6287846;22;20028;-93
2022/12/08 20:31:44;;;;;;;;;;;-0.20;99.90;;;;;;6314341;22;19975;-87
2022/12/08 20:34:14;;;;;;;;;;;-0.30;99.90;;;;;;6314096;22;19921;-86
2022/12/08 20:36:40;;;;;;;;;;;-0.30;99.90;;;;;;6287129;22;19914;-88
2022/12/08 20:39:09;;;;;;;;;;;-0.30;99.90;;;;;;6287892;22;20299;-86
2022/12/08 20:41:34;;;;;;;;;;;-0.30;99.90;;;;;;6340884;22;19915;-87
2022/12/08 20:44:00;;;;;;;;;;;-0.30;99.90;;;;;;6313252;22;19968;-87
2022/12/08 20:46:26;;;;;;;;;;;-0.30;99.90;;;;;;6340707;22;19914;-86
2022/12/08 20:48:51;;;;;;;;;;;-0.30;99.90;;;;;;6341008;22;19914;-85
2022/12/08 20:51:18;;;;;;;;;;;-0.30;99.90;;;;;;6340493;22;19914;-88
2022/12/08 20:53:44;;;;;;;;;;;-0.20;99.90;;;;;;6287338;22;20316;-92
2022/12/08 20:56:17;;;;;;;;;;;-0.20;99.90;;;;;;6262519;22;19914;-92
2022/12/08 20:58:42;;;;;;;;;;;-0.20;99.90;;;;;;6313897;22;19946;-88
2022/12/08 21:01:09;;;;;;;;;;;-0.10;99.90;;;;;;6312378;22;19914;-87
2022/12/08 21:03:35;;;;;;;;;;;-0.10;99.90;;;;;;6313143;22;19914;-88
2022/12/08 21:06:00;;;;;;;;;;;-0.10;99.90;;;;;;6312556;22;19967;-91
2022/12/08 21:08:26;;;;;;;;;;;-0.10;99.90;;;;;;6288335;22;19919;-96
2022/12/08 21:10:56;;;;;;;;;;;-0.10;99.90;;;;;;6288532;22;19910;-90
2022/12/08 21:13:21;;;;;;;;;;;-0.10;99.90;;;;;;6261926;22;19915;-91
2022/12/08 21:15:47;;;;;;;;;;;-0.20;99.90;;;;;;6288264;22;19914;-92
2022/12/08 21:18:31;;;;;;;;;;;-0.30;99.90;;;;;;6288146;22;19921;-91
2022/12/08 21:21:02;;;;;;;;;;;-0.30;99.90;;;;;;6313547;22;20294;-89
2022/12/08 21:23:27;;;;;;;;;;;-0.30;99.90;;;;;;6287956;22;19960;-95
2022/12/08 21:25:53;;;;;;;;;;;-0.30;99.90;;;;;;6314571;22;20286;-95
2022/12/08 21:28:19;;;;;;;;;;;-0.30;99.90;;;;;;6261980;22;19968;-93
2022/12/08 21:30:44;;;;;;;;;;;-0.30;99.90;;;;;;6313352;22;20398;-88
2022/12/08 21:33:10;;;;;;;;;;;-0.20;99.90;;;;;;6339484;22;19914;-90
2022/12/08 21:55:18;;;;;;;;;;;0.30;99.90;;;;;;6342004;22;19922;-92
2022/12/08 21:57:44;;;;;;;;;;;0.40;99.90;;;;;;6319237;22;19918;-92
2022/12/08 22:00:12;;;;;;;;;;;0.40;99.90;;;;;;6318685;22;19921;-95
2022/12/08 22:02:37;;;;;;;;;;;0.40;99.90;;;;;;6344708;22;19964;-91
2022/12/08 22:05:03;;;;;;;;;;;0.40;99.90;;;;;;6344710;22;20294;-88
2022/12/08 22:07:29;;;;;;;;;;;0.40;99.90;;;;;;6318493;22;19979;-88
2022/12/08 22:10:07;;;;;;;;;;;0.40;99.90;;;;;;6318043;22;19921;-86
2022/12/08 22:12:33;;;;;;;;;;;0.30;99.90;;;;;;6344045;22;19918;-88
2022/12/08 22:14:59;;;;;;;;;;;0.30;99.90;;;;;;6343896;22;19914;-88
2022/12/08 22:17:24;;;;;;;;;;;0.30;99.90;;;;;;6317887;22;20320;-92
2022/12/08 22:19:50;;;;;;;;;;;0.30;99.90;;;;;;6343812;22;19914;-91
2022/12/08 22:22:16;;;;;;;;;;;0.30;99.90;;;;;;6343761;22;19985;-89
